createdAt,value
2023-04-03T00:00:31.835Z,3.08
2023-04-03T00:02:58.194Z,3.10
2023-04-03T00:05:24.099Z,3.33
2023-04-03T00:07:50.370Z,3.22
2023-04-03T00:10:16.552Z,2.63
2023-04-03T00:12:42.558Z,2.75
2023-04-03T00:15:08.976Z,2.53
2023-04-03T00:17:35.362Z,2.72
2023-04-03T00:20:01.962Z,2.53
2023-04-03T00:22:28.894Z,2.85
2023-04-03T00:24:55.564Z,2.72
2023-04-03T00:27:21.875Z,3.53
2023-04-03T00:29:47.688Z,3.05
2023-04-03T00:32:14.167Z,3.45
2023-04-03T00:34:39.949Z,3.10
2023-04-03T00:37:06.421Z,2.72
2023-04-03T00:39:32.405Z,3.13
2023-04-03T00:41:58.427Z,3.38
2023-04-03T00:44:33.431Z,3.00
2023-04-03T00:47:00.116Z,3.08
2023-04-03T00:49:27.479Z,3.22
2023-04-03T00:51:54.270Z,2.88
2023-04-03T00:54:20.333Z,2.88
2023-04-03T00:56:46.404Z,3.13
2023-04-03T00:59:17.054Z,3.45
2023-04-03T01:01:46.371Z,2.72
2023-04-03T01:04:28.835Z,2.85
2023-04-03T01:06:57.665Z,2.85
2023-04-03T01:09:23.607Z,2.80
2023-04-03T01:11:49.707Z,3.28
2023-04-03T01:14:15.574Z,3.17
2023-04-03T01:16:41.375Z,2.50
2023-04-03T01:19:14.853Z,2.90
2023-04-03T01:21:49.417Z,3.05
2023-04-03T01:24:33.110Z,3.20
2023-04-03T01:27:00.578Z,3.00
2023-04-03T01:29:27.068Z,3.00
2023-04-03T01:32:11.299Z,3.05
2023-04-03T01:34:37.144Z,3.28
2023-04-03T01:37:02.969Z,2.90
2023-04-03T01:39:28.785Z,2.85
2023-04-03T01:41:54.895Z,3.30
2023-04-03T01:44:20.901Z,3.15
2023-04-03T01:46:47.657Z,3.22
2023-04-03T01:49:13.576Z,3.22
2023-04-03T01:51:39.523Z,3.22
2023-04-03T01:54:05.500Z,2.78
2023-04-03T01:56:31.324Z,3.35
2023-04-03T01:58:57.119Z,3.30
2023-04-03T02:01:23.649Z,2.78
2023-04-03T02:03:49.857Z,3.58
2023-04-03T02:06:15.811Z,2.38
2023-04-03T02:08:42.119Z,2.35
2023-04-03T02:11:07.997Z,2.85
2023-04-03T02:13:33.838Z,3.05
2023-04-03T02:15:59.678Z,2.30
2023-04-03T02:18:25.464Z,2.97
2023-04-03T02:20:51.283Z,2.92
2023-04-03T02:23:17.090Z,2.70
2023-04-03T02:25:42.899Z,2.63
2023-04-03T02:28:08.733Z,3.05
2023-04-03T02:30:35.034Z,2.60
2023-04-03T02:33:01.264Z,2.78
2023-04-03T02:35:27.301Z,3.70
2023-04-03T02:37:53.215Z,2.50
2023-04-03T02:40:19.215Z,2.28
2023-04-03T02:42:45.421Z,2.80
2023-04-03T02:45:11.381Z,2.92
2023-04-03T02:47:37.242Z,2.70
2023-04-03T02:50:03.274Z,2.70
2023-04-03T02:52:29.088Z,2.78
2023-04-03T02:54:54.974Z,2.72
2023-04-03T02:57:20.894Z,2.70
2023-04-03T02:59:46.779Z,2.70
2023-04-03T03:02:12.623Z,2.20
2023-04-03T03:04:38.556Z,2.72
2023-04-03T03:07:04.718Z,2.80
2023-04-03T03:09:30.510Z,2.60
2023-04-03T03:11:57.261Z,2.90
2023-04-03T03:14:23.625Z,2.70
2023-04-03T03:16:49.794Z,3.13
2023-04-03T03:19:16.212Z,2.78
2023-04-03T03:21:42.050Z,2.42
2023-04-03T03:24:08.148Z,2.80
2023-04-03T03:26:34.170Z,2.47
2023-04-03T03:29:00.114Z,2.70
2023-04-03T03:31:26.022Z,2.97
2023-04-03T03:33:51.950Z,3.28
2023-04-03T03:36:17.808Z,3.67
2023-04-03T03:38:43.780Z,3.38
2023-04-03T03:41:09.872Z,2.80
2023-04-03T03:43:35.691Z,2.42
2023-04-03T03:46:01.565Z,2.40
2023-04-03T03:48:27.481Z,2.33
2023-04-03T03:50:53.289Z,2.55
2023-04-03T03:53:19.606Z,2.80
2023-04-03T03:55:45.506Z,2.90
2023-04-03T03:58:11.332Z,2.90
2023-04-03T04:00:37.290Z,3.67
2023-04-03T04:03:03.667Z,2.90
2023-04-03T04:05:29.681Z,3.15
2023-04-03T04:07:55.478Z,2.85
2023-04-03T04:10:21.391Z,2.90
2023-04-03T04:12:49.295Z,3.25
2023-04-03T04:15:15.151Z,3.25
2023-04-03T04:17:40.992Z,3.05
2023-04-03T04:20:07.277Z,3.50
2023-04-03T04:22:33.158Z,2.85
2023-04-03T04:24:59.056Z,2.60
2023-04-03T04:27:24.928Z,2.88
2023-04-03T04:29:50.789Z,2.80
2023-04-03T04:32:16.669Z,2.83
2023-04-03T04:34:42.549Z,2.90
2023-04-03T04:37:08.451Z,3.13
2023-04-03T04:39:35.107Z,3.13
2023-04-03T04:42:00.932Z,2.67
2023-04-03T04:44:26.675Z,3.30
2023-04-03T04:46:52.535Z,3.03
2023-04-03T04:49:18.392Z,3.70
2023-04-03T04:51:51.674Z,3.25
2023-04-03T04:54:18.719Z,2.97
2023-04-03T04:56:44.593Z,3.28
2023-04-03T04:59:10.546Z,2.85
2023-04-03T05:01:36.337Z,3.42
2023-04-03T05:04:02.323Z,3.47
2023-04-03T05:06:30.395Z,3.10
2023-04-03T05:08:56.461Z,2.92
2023-04-03T05:11:22.254Z,2.40
2023-04-03T05:13:51.316Z,2.80
2023-04-03T05:16:17.312Z,3.00
2023-04-03T05:18:43.160Z,2.60
2023-04-03T05:21:09.153Z,3.10
2023-04-03T05:23:35.103Z,3.40
2023-04-03T05:26:00.855Z,3.03
2023-04-03T05:28:26.863Z,3.13
2023-04-03T05:30:58.013Z,2.60
2023-04-03T05:33:25.079Z,2.70
2023-04-03T05:35:50.985Z,2.83
2023-04-03T05:38:16.921Z,2.80
2023-04-03T05:40:42.878Z,3.83
2023-04-03T05:43:08.809Z,3.53
2023-04-03T05:45:34.865Z,4.30
2023-04-03T05:48:00.746Z,3.33
2023-04-03T05:50:26.620Z,2.95
2023-04-03T05:52:56.865Z,3.20
2023-04-03T05:55:22.650Z,3.03
2023-04-03T05:57:48.560Z,2.88
2023-04-03T06:00:15.880Z,2.83
2023-04-03T06:02:42.253Z,3.83
2023-04-03T06:05:09.714Z,3.20
2023-04-03T06:07:36.143Z,2.85
2023-04-03T06:10:02.735Z,3.30
2023-04-03T06:12:31.746Z,4.03
2023-04-03T06:14:57.621Z,3.38
2023-04-03T06:17:24.024Z,2.67
2023-04-03T06:19:49.842Z,2.95
2023-04-03T06:22:15.935Z,3.35
2023-04-03T06:24:41.906Z,3.30
2023-04-03T06:27:08.146Z,3.38
2023-04-03T06:29:33.997Z,3.50
2023-04-03T06:31:59.788Z,2.92
2023-04-03T06:34:26.071Z,2.92
2023-04-03T06:36:51.823Z,2.80
2023-04-03T06:39:23.035Z,2.55
2023-04-03T06:41:49.536Z,3.20
2023-04-03T06:44:16.415Z,3.38
2023-04-03T06:46:44.063Z,3.88
2023-04-03T06:49:10.601Z,3.78
2023-04-03T06:51:36.814Z,2.70
2023-04-03T06:54:04.286Z,2.67
2023-04-03T06:56:30.979Z,2.40
2023-04-03T06:59:00.129Z,2.55
2023-04-03T07:01:30.165Z,3.08
2023-04-03T07:03:56.542Z,2.95
2023-04-03T07:06:23.018Z,2.90
2023-04-03T07:08:49.429Z,2.60
2023-04-03T07:11:16.214Z,3.38
2023-04-03T07:13:42.194Z,3.20
2023-04-03T07:16:08.732Z,3.38
2023-04-03T07:18:35.000Z,3.20
2023-04-03T07:21:01.417Z,2.83
2023-04-03T07:23:27.740Z,2.90
2023-04-03T07:25:53.955Z,3.03
2023-04-03T07:28:21.007Z,3.47
2023-04-03T07:30:55.344Z,2.90
2023-04-03T07:33:23.156Z,2.90
2023-04-03T07:35:49.972Z,2.80
2023-04-03T07:38:16.473Z,2.80
2023-04-03T07:40:47.700Z,2.97
2023-04-03T07:43:14.271Z,3.10
2023-04-03T07:45:40.362Z,3.00
2023-04-03T07:48:06.666Z,2.95
2023-04-03T07:50:32.669Z,2.55
2023-04-03T07:52:59.169Z,2.42
2023-04-03T07:55:25.788Z,2.88
2023-04-03T07:57:51.775Z,2.88
2023-04-03T08:00:18.155Z,2.33
2023-04-03T08:02:44.925Z,2.55
2023-04-03T08:05:11.792Z,3.03
2023-04-03T08:07:38.492Z,3.05
2023-04-03T08:10:05.008Z,2.58
2023-04-03T08:12:32.253Z,3.00
2023-04-03T08:15:01.479Z,3.30
2023-04-03T08:17:27.488Z,3.03
2023-04-03T08:19:53.365Z,2.65
2023-04-03T08:22:19.664Z,2.58
2023-04-03T08:24:56.159Z,2.53
2023-04-03T08:27:24.886Z,2.17
2023-04-03T08:29:51.665Z,1.77
2023-04-03T08:32:18.267Z,1.83
2023-04-03T08:34:44.315Z,2.00
2023-04-03T08:37:10.336Z,1.73
2023-04-03T08:39:36.283Z,2.10
2023-04-03T08:42:14.261Z,2.20
2023-04-03T08:45:03.570Z,2.15
2023-04-03T08:47:41.021Z,2.17
2023-04-03T08:50:21.279Z,1.80
2023-04-03T08:53:11.504Z,2.10
2023-04-03T08:55:45.663Z,2.00
2023-04-03T08:58:16.759Z,1.50
2023-04-03T09:00:50.168Z,1.52
2023-04-03T09:03:20.061Z,2.00
2023-04-03T09:05:55.582Z,1.75
2023-04-03T09:08:26.267Z,1.60
2023-04-03T09:11:28.125Z,1.85
2023-04-03T09:14:01.812Z,1.33
2023-04-03T09:16:30.507Z,1.40
2023-04-03T09:19:13.864Z,1.33
2023-04-03T09:21:42.797Z,1.27
2023-04-03T09:24:12.381Z,1.20
2023-04-03T09:26:46.717Z,1.10
2023-04-03T09:29:21.796Z,1.65
2023-04-03T09:31:50.739Z,0.80
2023-04-03T09:34:43.465Z,0.82
2023-04-03T09:37:09.564Z,1.20
2023-04-03T09:39:56.601Z,1.15
2023-04-03T09:42:24.408Z,0.80
2023-04-03T09:44:58.447Z,1.20
2023-04-03T09:47:36.569Z,1.50
2023-04-03T09:50:14.647Z,1.10
2023-04-03T09:52:46.381Z,1.10
2023-04-03T09:55:15.576Z,1.13
2023-04-03T09:57:41.476Z,1.00
2023-04-03T10:00:21.930Z,1.05
2023-04-03T10:02:53.066Z,0.93
2023-04-03T10:05:33.487Z,1.00
2023-04-03T10:08:14.334Z,0.70
2023-04-03T10:10:45.933Z,1.00
2023-04-03T10:13:21.774Z,0.65
2023-04-03T10:15:52.987Z,0.65
2023-04-03T10:18:46.211Z,0.70
2023-04-03T10:21:27.127Z,1.00
2023-04-03T10:24:10.377Z,0.70
2023-04-03T10:26:45.461Z,0.90
2023-04-03T10:29:32.828Z,0.80
2023-04-03T10:32:16.043Z,1.08
2023-04-03T10:34:51.642Z,0.93
2023-04-03T10:37:37.045Z,1.67
2023-04-03T10:40:31.510Z,1.23
2023-04-03T10:43:06.746Z,0.73
2023-04-03T10:45:50.800Z,0.80
2023-04-03T10:48:22.652Z,0.93
2023-04-03T10:51:07.414Z,0.80
2023-04-03T10:54:01.217Z,0.95
2023-04-03T10:56:32.047Z,0.95
2023-04-03T10:59:14.269Z,0.82
2023-04-03T11:01:44.456Z,0.85
2023-04-03T11:04:12.979Z,1.20
2023-04-03T11:06:58.327Z,1.17
2023-04-03T11:09:28.423Z,1.10
2023-04-03T11:12:10.852Z,1.10
2023-04-03T11:14:38.571Z,0.75
2023-04-03T11:17:04.372Z,0.88
2023-04-03T11:20:12.269Z,0.80
2023-04-03T11:22:51.902Z,0.90
2023-04-03T11:25:25.571Z,0.82
2023-04-03T11:27:56.982Z,0.90
2023-04-03T11:30:28.610Z,0.95
2023-04-03T11:33:03.757Z,1.10
2023-04-03T11:35:30.982Z,1.13
2023-04-03T11:38:00.348Z,0.80
2023-04-03T11:40:31.123Z,1.08
2023-04-03T11:42:59.920Z,0.98
2023-04-03T11:45:33.021Z,0.80
2023-04-03T11:48:28.521Z,1.30
2023-04-03T11:50:55.806Z,1.10
2023-04-03T11:53:29.594Z,0.93
2023-04-03T11:56:01.000Z,1.05
2023-04-03T11:58:35.195Z,1.10
2023-04-03T12:01:08.260Z,0.75
2023-04-03T12:03:58.074Z,0.82
2023-04-03T12:06:33.103Z,1.00
2023-04-03T12:08:59.082Z,1.33
2023-04-03T12:11:33.322Z,1.20
2023-04-03T12:13:59.057Z,1.35
2023-04-03T12:16:32.667Z,1.10
2023-04-03T12:19:04.456Z,1.38
2023-04-03T12:21:30.425Z,0.98
2023-04-03T12:24:08.341Z,1.10
2023-04-03T12:26:56.259Z,1.20
2023-04-03T12:29:28.920Z,1.33
2023-04-03T12:32:04.108Z,0.80
2023-04-03T12:35:07.727Z,1.20
2023-04-03T12:37:58.892Z,1.25
2023-04-03T12:40:48.557Z,1.20
2023-04-03T12:43:23.675Z,1.10
2023-04-03T12:46:00.416Z,1.00
2023-04-03T12:48:29.740Z,0.85
2023-04-03T12:50:57.708Z,1.67
2023-04-03T12:53:36.367Z,1.08
2023-04-03T12:56:24.543Z,1.40
2023-04-03T12:58:53.336Z,1.10
2023-04-03T13:01:23.685Z,1.10
2023-04-03T13:03:57.388Z,0.90
2023-04-03T13:06:28.307Z,1.00
2023-04-03T13:08:57.521Z,1.13
2023-04-03T13:11:27.363Z,1.00
2023-04-03T13:14:06.167Z,0.95
2023-04-03T13:16:33.718Z,1.08
2023-04-03T13:19:00.253Z,1.00
2023-04-03T13:21:28.214Z,1.45
2023-04-03T13:24:11.490Z,1.05
2023-04-03T13:26:38.568Z,1.58
2023-04-03T13:29:09.439Z,1.27
2023-04-03T13:31:39.391Z,0.80
2023-04-03T13:34:14.283Z,1.92
2023-04-03T13:36:58.116Z,1.15
2023-04-03T13:39:32.582Z,1.00
2023-04-03T13:42:03.737Z,1.35
2023-04-03T13:44:33.760Z,1.50
2023-04-03T13:47:21.405Z,1.60
2023-04-03T13:50:15.515Z,0.98
2023-04-03T13:52:45.755Z,1.73
2023-04-03T13:55:25.955Z,1.23
2023-04-03T13:58:23.544Z,1.45
2023-04-03T14:01:21.246Z,1.45
2023-04-03T14:03:59.987Z,1.85
2023-04-03T14:06:27.760Z,1.00
2023-04-03T14:08:53.874Z,1.27
2023-04-03T14:11:29.711Z,1.25
2023-04-03T14:14:00.638Z,1.40
2023-04-03T14:16:30.064Z,0.95
2023-04-03T14:18:56.068Z,1.00
2023-04-03T14:21:21.972Z,1.17
2023-04-03T14:23:48.663Z,0.98
2023-04-03T14:26:23.673Z,1.10
2023-04-03T14:28:53.570Z,1.42
2023-04-03T14:31:21.280Z,1.13
2023-04-03T14:33:47.806Z,1.17
2023-04-03T14:36:33.291Z,1.27
2023-04-03T14:39:01.078Z,1.92
2023-04-03T14:41:27.504Z,0.80
2023-04-03T14:43:53.908Z,1.25
2023-04-03T14:46:38.619Z,1.60
2023-04-03T14:49:21.582Z,1.23
2023-04-03T14:51:47.855Z,1.48
2023-04-03T14:54:19.088Z,1.40
2023-04-03T14:56:45.695Z,1.02
2023-04-03T14:59:13.392Z,0.95
2023-04-03T15:01:39.609Z,1.20
2023-04-03T15:04:12.296Z,1.42
2023-04-03T15:06:38.327Z,1.23
2023-04-03T15:09:04.204Z,1.40
2023-04-03T15:11:30.234Z,1.38
2023-04-03T15:13:56.105Z,1.05
2023-04-03T15:16:30.258Z,1.30
2023-04-03T15:18:56.148Z,1.10
2023-04-03T15:21:22.140Z,1.20
2023-04-03T15:23:48.002Z,1.02
2023-04-03T15:26:14.003Z,1.00
2023-04-03T15:28:42.327Z,2.33
2023-04-03T15:31:08.758Z,1.40
2023-04-03T15:33:36.290Z,1.05
2023-04-03T15:36:07.100Z,1.20
2023-04-03T15:38:34.431Z,1.38
2023-04-03T15:41:00.839Z,1.35
2023-04-03T15:43:26.734Z,1.20
2023-04-03T15:45:52.961Z,1.25
2023-04-03T15:48:18.895Z,1.10
2023-04-03T15:50:44.839Z,1.25
2023-04-03T15:53:10.822Z,1.77
2023-04-03T15:55:38.251Z,1.17
2023-04-03T15:58:04.862Z,1.30
2023-04-03T16:00:32.219Z,1.90
2023-04-03T16:03:06.495Z,1.60
2023-04-03T16:05:33.290Z,1.17
2023-04-03T16:08:00.644Z,1.63
2023-04-03T16:10:27.539Z,1.13
2023-04-03T16:12:53.549Z,1.55
2023-04-03T16:15:19.503Z,1.50
2023-04-03T16:17:45.947Z,2.28
2023-04-03T16:20:13.380Z,1.90
2023-04-03T16:22:40.307Z,1.40
2023-04-03T16:25:07.695Z,2.45
2023-04-03T16:27:34.244Z,1.98
2023-04-03T16:30:00.522Z,1.33
2023-04-03T16:32:29.616Z,1.75
2023-04-03T16:34:56.276Z,1.40
2023-04-03T16:37:22.290Z,1.52
2023-04-03T16:39:48.200Z,1.40
2023-04-03T16:42:14.122Z,1.80
2023-04-03T16:44:40.304Z,1.80
2023-04-03T16:47:08.123Z,1.83
2023-04-03T16:49:35.293Z,1.90
2023-04-03T16:52:03.189Z,1.77
2023-04-03T16:54:29.716Z,1.58
2023-04-03T16:56:55.765Z,1.65
2023-04-03T16:59:21.730Z,1.88
2023-04-03T17:01:47.635Z,1.90
2023-04-03T17:04:13.581Z,1.40
2023-04-03T17:06:40.101Z,1.58
2023-04-03T17:09:07.163Z,1.40
2023-04-03T17:13:59.816Z,1.98
2023-04-03T17:16:28.397Z,2.13
2023-04-03T17:18:57.900Z,1.27
2023-04-03T17:21:26.657Z,2.20
2023-04-03T17:24:00.936Z,1.65
2023-04-03T17:26:28.325Z,1.30
2023-04-03T17:28:54.163Z,1.40
2023-04-03T17:31:20.603Z,1.67
2023-04-03T17:33:46.537Z,1.50
2023-04-03T17:36:12.578Z,1.83
2023-04-03T17:38:38.831Z,1.58
2023-04-03T17:41:07.302Z,1.63
2023-04-03T17:43:34.173Z,1.40
2023-04-03T17:46:06.313Z,2.33
2023-04-03T17:48:33.857Z,1.40
2023-04-03T17:51:07.330Z,1.45
2023-04-03T17:53:33.270Z,1.42
2023-04-03T17:56:04.862Z,1.50
2023-04-03T17:58:30.819Z,2.00
2023-04-03T18:00:57.235Z,1.65
2023-04-03T18:03:23.158Z,2.08
2023-04-03T18:05:50.191Z,2.13
2023-04-03T18:08:16.670Z,1.40
2023-04-03T18:10:42.711Z,1.55
2023-04-03T18:13:09.061Z,1.30
2023-04-03T18:15:35.053Z,1.83
2023-04-03T18:18:00.995Z,2.42
2023-04-03T18:20:26.980Z,1.90
2023-04-03T18:22:52.953Z,1.40
2023-04-03T18:25:19.148Z,1.45
2023-04-03T18:27:46.505Z,2.13
2023-04-03T18:30:15.837Z,2.03
2023-04-03T18:32:42.432Z,1.50
2023-04-03T18:35:08.664Z,1.60
2023-04-03T18:37:34.731Z,1.70
2023-04-03T18:40:00.718Z,1.40
2023-04-03T18:42:27.000Z,1.77
2023-04-03T18:44:57.852Z,1.92
2023-04-03T18:47:24.090Z,1.90
2023-04-03T18:49:50.014Z,1.75
2023-04-03T18:52:16.104Z,1.83
2023-04-03T18:54:42.607Z,1.67
2023-04-03T18:57:08.532Z,2.13
2023-04-03T18:59:34.525Z,2.20
2023-04-03T19:02:01.141Z,2.20
2023-04-03T19:04:28.227Z,2.20
2023-04-03T19:06:54.482Z,2.22
2023-04-03T19:09:20.858Z,1.73
2023-04-03T19:11:46.735Z,1.63
2023-04-03T19:14:16.627Z,2.03
2023-04-03T19:16:43.925Z,1.70
2023-04-03T19:19:11.914Z,2.03
2023-04-03T19:21:40.321Z,2.28
2023-04-03T19:24:11.410Z,1.70
2023-04-03T19:26:38.264Z,2.00
2023-04-03T19:29:05.033Z,1.60
2023-04-03T19:31:32.757Z,1.48
2023-04-03T19:33:59.828Z,1.65
2023-04-03T19:36:25.918Z,2.00
2023-04-03T19:38:52.804Z,1.80
2023-04-03T19:41:23.837Z,1.40
2023-04-03T19:43:52.227Z,1.75
2023-04-03T19:46:18.573Z,2.00
2023-04-03T19:48:46.609Z,2.88
2023-04-03T19:51:13.192Z,1.75
2023-04-03T19:53:39.086Z,1.73
2023-04-03T19:56:05.072Z,1.80
2023-04-03T19:58:33.968Z,1.88
2023-04-03T20:01:02.380Z,2.20
2023-04-03T20:03:29.875Z,2.33
2023-04-03T20:05:58.327Z,2.08
2023-04-03T20:08:27.677Z,1.83
2023-04-03T20:10:55.240Z,1.95
2023-04-03T20:13:21.724Z,1.73
2023-04-03T20:15:47.630Z,2.25
2023-04-03T20:18:19.619Z,1.75
2023-04-03T20:21:01.035Z,2.25
2023-04-03T20:23:28.425Z,1.67
2023-04-03T20:26:08.461Z,1.83
2023-04-03T20:28:35.713Z,2.58
2023-04-03T20:31:01.761Z,2.17
2023-04-03T20:33:28.002Z,2.10
2023-04-03T20:35:57.831Z,2.10
2023-04-03T20:38:24.729Z,2.00
2023-04-03T20:40:51.452Z,2.10
2023-04-03T20:43:17.312Z,2.08
2023-04-03T20:45:43.332Z,2.22
2023-04-03T20:48:12.258Z,2.17
2023-04-03T20:50:38.726Z,1.70
2023-04-03T20:53:04.785Z,1.85
2023-04-03T20:55:30.650Z,2.15
2023-04-03T20:58:00.641Z,1.77
2023-04-03T21:00:28.198Z,1.83
2023-04-03T21:02:56.292Z,2.03
2023-04-03T21:05:25.257Z,1.90
2023-04-03T21:08:29.068Z,1.77
2023-04-03T21:11:32.266Z,1.95
2023-04-03T21:14:36.145Z,1.50
2023-04-03T21:17:01.838Z,2.20
2023-04-03T21:19:27.753Z,2.20
2023-04-03T21:21:54.278Z,1.55
2023-04-03T21:24:20.312Z,1.83
2023-04-03T21:26:46.482Z,2.00
2023-04-03T21:29:13.567Z,1.58
2023-04-03T21:31:57.623Z,2.78
2023-04-03T21:34:28.506Z,1.80
2023-04-03T21:36:55.389Z,1.77
2023-04-03T21:39:22.323Z,1.92
2023-04-03T21:41:54.082Z,1.90
2023-04-03T21:44:20.221Z,2.00
2023-04-03T21:46:47.158Z,2.10
2023-04-03T21:49:13.472Z,1.85
2023-04-03T21:51:39.439Z,2.00
2023-04-03T21:54:05.374Z,1.85
2023-04-03T21:56:31.218Z,2.63
2023-04-03T21:58:59.862Z,2.45
2023-04-03T22:01:25.726Z,3.50
2023-04-03T22:03:51.572Z,2.13
2023-04-03T22:06:17.545Z,2.00
2023-04-03T22:08:43.830Z,2.05
2023-04-03T22:11:12.714Z,2.15
2023-04-03T22:13:38.727Z,2.13
2023-04-03T22:16:05.314Z,2.33
2023-04-03T22:18:31.942Z,2.13
2023-04-03T22:20:58.236Z,2.72
2023-04-03T22:23:25.411Z,1.80
2023-04-03T22:26:07.818Z,2.10
2023-04-03T22:28:40.439Z,1.90
2023-04-03T22:31:07.150Z,2.22
2023-04-03T22:33:35.700Z,1.80
2023-04-03T22:36:03.451Z,1.95
2023-04-03T22:38:29.604Z,2.40
2023-04-03T22:40:59.856Z,2.17
2023-04-03T22:43:27.189Z,2.40
2023-04-03T22:45:53.230Z,1.80
2023-04-03T22:48:19.299Z,1.90
2023-04-03T22:50:46.240Z,1.98
2023-04-03T22:53:12.426Z,1.90
2023-04-03T22:55:38.315Z,2.05
2023-04-03T22:58:05.012Z,1.98
2023-04-03T23:00:31.303Z,1.83
2023-04-03T23:03:00.958Z,1.90
2023-04-03T23:05:27.886Z,1.63
2023-04-03T23:07:53.844Z,1.80
2023-04-03T23:10:20.970Z,1.83
2023-04-03T23:12:46.776Z,2.05
2023-04-03T23:15:16.880Z,2.35
2023-04-03T23:17:42.789Z,1.90
2023-04-03T23:20:09.067Z,2.15
2023-04-03T23:22:35.580Z,2.05
2023-04-03T23:25:01.432Z,1.85
2023-04-03T23:27:27.517Z,1.83
2023-04-03T23:29:53.335Z,2.00
2023-04-03T23:32:19.229Z,1.92
2023-04-03T23:34:45.260Z,2.08
2023-04-03T23:37:12.083Z,1.77
2023-04-03T23:39:37.960Z,1.77
2023-04-03T23:42:08.338Z,1.85
2023-04-03T23:44:34.337Z,2.00
2023-04-03T23:47:00.570Z,2.10
2023-04-03T23:49:27.005Z,2.58
2023-04-03T23:51:53.523Z,1.98
2023-04-03T23:54:20.008Z,2.60
2023-04-03T23:56:45.776Z,2.05
2023-04-03T23:59:11.631Z,1.90
